Time;durP1;ratioP1;P1;durP2;ratioP2;P2;SDS_P1;SDS_P2;PMS_P1;PMS_P2;Temp;Humidity;BMP_temperature;BMP_pressure;BME280_temperature;BME280_humidity;BME280_pressure;Samples;Min_cycle;Max_cycle;Signal;HPM_P1;HPM_P2
2022/11/15 00:00:18;;;;;;;4.88;3.35;;;;;;;5.79;100.00;95611.84;5076159;28;24454;-70
2022/11/15 00:02:45;;;;;;;5.03;3.42;;;;;;;5.82;100.00;95614.25;5079985;28;24441;-70
2022/11/15 00:05:11;;;;;;;3.42;3.08;;;;;;;5.82;100.00;95603.97;5085613;28;24440;-70
2022/11/15 00:07:38;;;;;;;4.82;3.80;;;;;;;5.86;100.00;95604.66;5082688;28;24446;-70
2022/11/15 00:10:05;;;;;;;3.15;2.83;;;;;;;5.87;100.00;95612.31;5075038;28;24435;-70
2022/11/15 00:12:31;;;;;;;6.38;3.20;;;;;;;5.89;100.00;95600.22;5079074;28;24450;-70
2022/11/15 00:14:59;;;;;;;5.07;3.60;;;;;;;5.97;100.00;95616.16;5083493;28;24803;-70
2022/11/15 00:17:26;;;;;;;5.10;3.20;;;;;;;5.95;100.00;95605.09;5079065;28;24450;-70
2022/11/15 00:19:52;;;;;;;4.97;3.25;;;;;;;5.93;100.00;95604.38;5071525;28;24505;-70
2022/11/15 00:22:19;;;;;;;4.75;3.47;;;;;;;5.86;100.00;95597.81;5075659;28;24438;-70
2022/11/15 00:24:45;;;;;;;5.35;3.45;;;;;;;5.75;100.00;95598.31;5080153;28;24445;-70
2022/11/15 00:27:12;;;;;;;4.35;3.47;;;;;;;5.72;100.00;95600.19;5076947;28;24449;-71
2022/11/15 00:29:43;;;;;;;3.78;3.10;;;;;;;5.73;100.00;95601.84;5076773;28;24528;-70
2022/11/15 00:32:10;;;;;;;6.40;3.53;;;;;;;5.73;100.00;95599.28;5081273;28;24521;-71
2022/11/15 00:34:37;;;;;;;6.47;4.18;;;;;;;5.68;100.00;95593.53;5084503;28;24434;-69
2022/11/15 00:37:04;;;;;;;5.53;4.47;;;;;;;5.73;100.00;95594.13;5089763;28;24430;-71
2022/11/15 00:39:30;;;;;;;4.88;3.75;;;;;;;5.75;100.00;95595.75;5075658;28;24447;-71
2022/11/15 00:41:57;;;;;;;7.10;3.55;;;;;;;5.80;100.00;95598.09;5069928;28;24517;-70
2022/11/15 00:44:23;;;;;;;5.65;3.40;;;;;;;5.79;100.00;95599.00;5085270;28;24442;-70
2022/11/15 00:46:50;;;;;;;5.53;3.53;;;;;;;5.83;100.00;95597.94;5090562;28;25006;-70
2022/11/15 00:49:17;;;;;;;5.00;3.60;;;;;;;5.86;100.00;95596.94;5074867;28;24446;-70
2022/11/15 00:51:44;;;;;;;4.97;3.57;;;;;;;5.83;100.00;95588.50;5077710;28;25089;-70
2022/11/15 00:54:10;;;;;;;5.20;3.23;;;;;;;5.88;100.00;95587.44;5085916;28;24438;-70
2022/11/15 00:56:37;;;;;;;5.15;3.10;;;;;;;5.86;100.00;95594.38;5073735;28;24453;-70
2022/11/15 00:59:03;;;;;;;4.82;3.15;;;;;;;5.85;100.00;95587.59;5082013;28;24450;-70
2022/11/15 01:01:30;;;;;;;4.45;3.30;;;;;;;5.86;100.00;95591.81;5074491;28;24430;-70
2022/11/15 01:03:56;;;;;;;4.40;3.13;;;;;;;5.87;100.00;95584.03;5080781;28;24459;-70
2022/11/15 01:06:24;;;;;;;3.75;3.10;;;;;;;5.88;100.00;95590.00;5087744;28;24440;-70
2022/11/15 01:08:51;;;;;;;3.42;3.00;;;;;;;5.83;100.00;95582.53;5061585;28;24438;-70
2022/11/15 01:11:17;;;;;;;3.47;2.75;;;;;;;5.88;100.00;95583.13;5079862;28;24834;-70
2022/11/15 01:13:44;;;;;;;3.80;2.80;;;;;;;5.90;100.00;95572.78;5076887;28;24431;-70
2022/11/15 01:16:14;;;;;;;3.15;2.80;;;;;;;5.83;100.00;95579.97;5073916;28;24872;-70
2022/11/15 01:18:41;;;;;;;4.97;3.50;;;;;;;5.73;100.00;95571.00;5080336;28;24434;-71
2022/11/15 01:21:09;;;;;;;5.03;3.07;;;;;;;5.73;100.00;95571.00;5075100;28;24438;-70
2022/11/15 01:23:37;;;;;;;4.15;2.90;;;;;;;5.76;100.00;95578.56;5081280;28;25357;-71
2022/11/15 01:26:06;;;;;;;6.43;3.03;;;;;;;5.82;100.00;95570.56;5083563;28;24437;-70
2022/11/15 01:28:34;;;;;;;4.45;2.85;;;;;;;5.83;100.00;95565.38;5083845;28;24528;-70
2022/11/15 01:31:01;;;;;;;3.38;2.83;;;;;;;5.88;100.00;95561.75;5075300;28;24469;-70
2022/11/15 01:33:28;;;;;;;4.43;4.03;;;;;;;5.79;100.00;95568.16;5077413;28;25003;-70
2022/11/15 01:35:54;;;;;;;5.87;4.23;;;;;;;5.75;100.00;95569.22;5083140;28;24987;-70
2022/11/15 01:38:21;;;;;;;8.68;6.97;;;;;;;5.64;100.00;95566.31;5074001;28;24457;-70
2022/11/15 01:40:50;;;;;;;4.65;4.18;;;;;;;5.63;100.00;95562.88;5076797;28;24438;-70
2022/11/15 01:43:21;;;;;;;6.55;3.97;;;;;;;5.61;100.00;95561.31;5080569;28;24431;-70
2022/11/15 01:45:52;;;;;;;6.20;3.40;;;;;;;5.62;100.00;95561.22;5070989;28;24476;-70
2022/11/15 01:48:19;;;;;;;5.22;3.33;;;;;;;5.57;100.00;95556.31;5076689;28;24434;-70
2022/11/15 01:50:46;;;;;;;5.25;3.47;;;;;;;5.55;100.00;95557.28;5071967;28;24469;-70
2022/11/15 01:53:13;;;;;;;6.38;3.42;;;;;;;5.58;100.00;95557.13;5087446;28;24422;-70
2022/11/15 01:55:39;;;;;;;7.55;3.00;;;;;;;5.57;100.00;95555.47;5081305;28;24430;-70
2022/11/15 01:58:08;;;;;;;6.65;3.30;;;;;;;5.70;100.00;95553.16;5082070;28;24441;-70
2022/11/15 02:00:35;;;;;;;4.82;3.17;;;;;;;5.73;100.00;95543.56;5069319;28;24434;-71
2022/11/15 02:03:02;;;;;;;6.93;3.50;;;;;;;5.75;100.00;95538.38;5081342;28;24437;-71
2022/11/15 02:05:31;;;;;;;4.68;3.25;;;;;;;5.70;100.00;95541.13;5073631;28;24430;-70
2022/11/15 02:07:57;;;;;;;5.22;3.30;;;;;;;5.74;100.00;95534.13;5077868;28;24438;-71
2022/11/15 02:10:25;;;;;;;4.28;2.90;;;;;;;5.88;100.00;95541.19;5074290;28;24439;-71
2022/11/15 02:12:53;;;;;;;3.60;3.03;;;;;;;5.94;100.00;95535.78;5081829;28;25180;-71
2022/11/15 02:15:21;;;;;;;4.47;2.65;;;;;;;5.93;100.00;95536.66;5087102;28;24975;-71
2022/11/15 02:18:07;;;;;;;3.67;2.90;;;;;;;5.99;100.00;95526.94;5087362;28;24529;-71
2022/11/15 02:20:43;;;;;;;3.63;2.92;;;;;;;5.96;100.00;95533.97;5073021;28;24437;-71
2022/11/15 02:23:32;;;;;;;6.18;3.10;;;;;;;5.88;100.00;95526.59;5085741;28;24499;-71
2022/11/15 02:26:15;;;;;;;5.15;3.35;;;;;;;5.83;100.00;95523.41;5082073;28;24429;-71
2022/11/15 02:29:02;;;;;;;3.67;3.13;;;;;;;5.87;100.00;95519.78;5075858;28;24524;-71
2022/11/15 02:31:37;;;;;;;5.27;3.30;;;;;;;5.85;100.00;95519.03;5076632;28;24556;-71
2022/11/15 02:34:15;;;;;;;5.25;2.92;;;;;;;5.79;100.00;95520.16;5081892;28;25026;-71
2022/11/15 02:36:50;;;;;;;3.72;3.13;;;;;;;5.76;100.00;95506.63;5081673;28;24434;-70
2022/11/15 02:39:25;;;;;;;6.72;3.60;;;;;;;5.76;100.00;95507.47;5079222;28;24431;-70
2022/11/15 02:41:59;;;;;;;5.97;3.22;;;;;;;5.78;100.00;95507.38;5077258;28;24433;-70
2022/11/15 02:44:32;;;;;;;3.80;2.90;;;;;;;5.82;100.00;95509.75;5082289;28;24437;-70
2022/11/15 02:47:14;;;;;;;7.57;2.72;;;;;;;5.89;100.00;95506.84;5077056;28;24510;-70
2022/11/15 02:49:44;;;;;;;3.05;2.70;;;;;;;5.88;100.00;95500.88;5067253;28;24447;-70
2022/11/15 02:52:15;;;;;;;3.28;2.78;;;;;;;5.94;100.00;95495.50;5081507;28;24461;-70
2022/11/15 02:54:42;;;;;;;4.40;2.50;;;;;;;6.04;100.00;95488.13;5079911;28;24430;-70
2022/11/15 02:57:16;;;;;;;3.90;2.92;;;;;;;6.01;100.00;95481.44;5064732;28;24423;-71
2022/11/15 03:00:04;;;;;;;3.65;2.80;;;;;;;6.05;100.00;95484.69;5079031;28;24438;-71
2022/11/15 03:02:43;;;;;;;4.15;3.03;;;;;;;5.91;100.00;95477.59;5065698;28;24426;-71
2022/11/15 03:05:18;;;;;;;6.90;3.05;;;;;;;5.88;100.00;95480.31;5077236;28;24967;-71
2022/11/15 03:07:52;;;;;;;4.30;2.75;;;;;;;5.85;100.00;95482.22;5081074;28;24441;-71
2022/11/15 03:10:26;;;;;;;3.72;2.63;;;;;;;5.87;100.00;95483.81;5073686;28;24439;-71
2022/11/15 03:12:57;;;;;;;3.47;2.67;;;;;;;5.83;100.00;95484.88;5069283;28;24457;-71
2022/11/15 03:15:30;;;;;;;4.07;2.75;;;;;;;5.76;100.00;95474.03;5089884;28;24429;-70
2022/11/15 03:18:02;;;;;;;6.03;3.10;;;;;;;5.77;100.00;95469.75;5079661;28;24520;-70
2022/11/15 03:20:31;;;;;;;4.10;2.75;;;;;;;5.83;100.00;95475.41;5072477;28;24800;-70
2022/11/15 03:23:04;;;;;;;4.60;2.97;;;;;;;5.85;100.00;95474.50;5074048;28;24437;-70
2022/11/15 03:25:34;;;;;;;3.03;2.72;;;;;;;5.95;100.00;95471.44;5072320;28;24438;-70
2022/11/15 03:28:06;;;;;;;5.03;2.80;;;;;;;5.98;100.00;95471.28;5080210;28;24449;-70
2022/11/15 03:30:35;;;;;;;4.03;2.53;;;;;;;5.88;100.00;95467.47;5074006;28;24442;-70
2022/11/15 03:33:04;;;;;;;3.50;2.90;;;;;;;5.87;100.00;95455.53;5075600;28;24457;-70
2022/11/15 03:35:34;;;;;;;3.97;2.92;;;;;;;5.84;100.00;95450.53;5080790;28;24434;-70
2022/11/15 03:38:11;;;;;;;4.33;3.43;;;;;;;5.78;100.00;95456.84;5090915;28;25055;-70
2022/11/15 03:40:41;;;;;;;4.30;3.28;;;;;;;5.62;100.00;95462.78;5074421;28;24434;-70
2022/11/15 03:43:16;;;;;;;4.47;3.58;;;;;;;5.54;100.00;95461.41;5074012;28;24438;-70
2022/11/15 03:45:48;;;;;;;6.60;3.40;;;;;;;5.59;100.00;95459.44;5070972;28;24434;-70
2022/11/15 03:48:22;;;;;;;6.53;3.38;;;;;;;5.51;100.00;95458.97;5081647;28;24426;-70
2022/11/15 03:50:49;;;;;;;3.00;2.55;;;;;;;5.50;100.00;95462.47;5085220;28;25029;-70
2022/11/15 03:53:16;;;;;;;4.88;2.83;;;;;;;5.52;100.00;95460.63;5076514;28;24461;-70
2022/11/15 03:55:42;;;;;;;5.03;3.00;;;;;;;5.58;100.00;95457.78;5082533;28;24430;-70
2022/11/15 03:58:09;;;;;;;7.20;5.45;;;;;;;5.47;100.00;95454.91;5080410;28;24469;-70
2022/11/15 04:00:36;;;;;;;4.68;2.78;;;;;;;5.38;100.00;95452.78;5077993;28;24445;-70
2022/11/15 04:03:02;;;;;;;5.35;3.15;;;;;;;5.46;100.00;95449.84;5079716;28;24430;-70
2022/11/15 04:05:30;;;;;;;4.20;3.00;;;;;;;5.33;100.00;95441.88;5069461;28;24443;-70
2022/11/15 04:07:56;;;;;;;5.57;3.40;;;;;;;5.41;100.00;95456.91;5061997;28;25008;-70
2022/11/15 04:10:23;;;;;;;10.73;6.93;;;;;;;5.40;100.00;95443.25;5070961;28;24461;-71
2022/11/15 04:12:50;;;;;;;6.00;4.10;;;;;;;5.42;100.00;95443.19;5077755;28;24520;-70
2022/11/15 04:15:18;;;;;;;5.53;3.20;;;;;;;5.43;100.00;95440.53;5079233;28;25110;-71
2022/11/15 04:17:46;;;;;;;6.10;4.00;;;;;;;5.52;100.00;95434.13;5080307;28;24436;-71
2022/11/15 04:25:52;;;;;;;3.27;2.67;;;;;;;5.54;100.00;95422.03;5081438;28;24578;-70
2022/11/15 04:28:19;;;;;;;5.75;3.28;;;;;;;5.63;100.00;95429.28;5072238;28;24521;-70
2022/11/15 04:30:46;;;;;;;5.40;2.58;;;;;;;5.65;100.00;95424.91;5077766;28;25056;-70
2022/11/15 04:33:12;;;;;;;3.92;3.20;;;;;;;5.68;100.00;95429.09;5085426;28;24450;-70
2022/11/15 04:35:39;;;;;;;3.70;2.92;;;;;;;5.70;100.00;95432.41;5090910;28;24981;-69
2022/11/15 04:38:08;;;;;;;3.70;3.10;;;;;;;5.67;100.00;95428.22;5082814;28;24426;-70
2022/11/15 04:40:35;;;;;;;6.38;4.03;;;;;;;5.76;100.00;95425.22;5079823;28;24431;-70
2022/11/15 04:43:02;;;;;;;4.10;3.50;;;;;;;5.76;100.00;95424.41;5088580;28;24422;-70
2022/11/15 04:45:28;;;;;;;4.90;3.08;;;;;;;5.87;100.00;95424.69;5083895;28;25022;-70
2022/11/15 04:47:55;;;;;;;4.25;3.10;;;;;;;5.75;100.00;95417.59;5083037;28;24430;-70
2022/11/15 04:50:21;;;;;;;4.03;2.60;;;;;;;5.75;100.00;95409.91;5091631;28;24434;-70
2022/11/15 04:52:53;;;;;;;4.10;2.80;;;;;;;5.72;100.00;95417.75;5083297;28;24864;-70
2022/11/15 04:55:21;;;;;;;4.10;2.83;;;;;;;5.71;100.00;95413.50;5090630;28;24426;-70
2022/11/15 04:57:48;;;;;;;6.00;3.03;;;;;;;5.76;100.00;95411.56;5072549;28;24434;-70
2022/11/15 05:00:17;;;;;;;5.75;2.97;;;;;;;5.78;100.00;95418.28;5071206;28;24450;-70
2022/11/15 05:05:28;;;;;;;3.00;2.50;;;;;;;5.68;100.00;95409.38;5074725;28;24444;-71
2022/11/15 05:07:54;;;;;;;3.50;2.63;;;;;;;5.70;100.00;95402.41;5087960;28;24815;-71
2022/11/15 05:10:23;;;;;;;4.38;2.83;;;;;;;5.69;100.00;95408.44;5088481;28;24438;-70
2022/11/15 05:12:49;;;;;;;4.32;2.50;;;;;;;5.72;100.00;95397.19;5083058;28;24450;-71
2022/11/15 05:15:16;;;;;;;2.53;2.33;;;;;;;5.73;100.00;95404.81;5088558;28;24441;-71
2022/11/15 05:17:42;;;;;;;5.00;2.93;;;;;;;5.70;100.00;95399.81;5076224;28;24438;-71
2022/11/15 05:20:10;;;;;;;5.53;3.80;;;;;;;5.69;100.00;95395.59;5080123;28;24458;-71
2022/11/15 05:22:36;;;;;;;4.00;3.22;;;;;;;5.68;100.00;95396.50;5088638;28;24433;-71
2022/11/15 05:25:04;;;;;;;6.90;3.72;;;;;;;5.61;100.00;95386.63;5083202;28;24438;-71
2022/11/15 05:27:31;;;;;;;5.45;3.10;;;;;;;5.64;100.00;95371.88;5088523;28;24431;-71
2022/11/15 05:29:58;;;;;;;3.42;2.67;;;;;;;5.69;100.00;95371.66;5090751;28;24449;-71
2022/11/15 05:32:25;;;;;;;4.90;3.08;;;;;;;5.78;100.00;95386.59;5073424;28;24480;-71
2022/11/15 05:34:52;;;;;;;4.32;3.17;;;;;;;5.83;100.00;95380.31;5086331;28;24509;-70
2022/11/15 05:37:18;;;;;;;5.60;3.25;;;;;;;5.85;100.00;95380.25;5082754;28;24426;-70
2022/11/15 05:39:45;;;;;;;21.13;16.17;;;;;;;5.71;100.00;95382.66;5090286;28;24951;-70
2022/11/15 05:42:14;;;;;;;5.88;5.03;;;;;;;5.72;100.00;95379.22;5083982;28;24429;-70
2022/11/15 05:44:45;;;;;;;4.55;3.88;;;;;;;5.69;100.00;95369.91;5076751;28;25018;-70
2022/11/15 05:47:17;;;;;;;7.22;3.20;;;;;;;5.54;100.00;95362.97;5084001;28;24780;-71
2022/11/15 05:49:45;;;;;;;4.97;3.15;;;;;;;5.47;100.00;95366.75;5078137;28;24438;-70
2022/11/15 05:52:16;;;;;;;3.53;2.63;;;;;;;5.44;100.00;95370.28;5084605;28;24453;-70
2022/11/15 05:54:43;;;;;;;2.90;2.33;;;;;;;5.42;100.00;95373.84;5077950;28;24422;-71
2022/11/15 05:57:10;;;;;;;5.32;3.30;;;;;;;5.45;100.00;95381.38;5081137;28;24430;-71
2022/11/15 05:59:37;;;;;;;11.30;7.80;;;;;;;5.32;100.00;95376.84;5089459;28;24440;-70
2022/11/15 06:02:05;;;;;;;16.42;11.77;;;;;;;5.21;100.00;95380.84;5074349;28;24442;-70
2022/11/15 06:04:31;;;;;;;5.50;3.88;;;;;;;5.12;100.00;95382.13;5084551;28;24975;-70
2022/11/15 06:06:59;;;;;;;6.70;3.50;;;;;;;5.01;100.00;95377.50;5084074;28;24427;-70
2022/11/15 06:09:26;;;;;;;6.03;4.88;;;;;;;5.01;100.00;95372.38;5086358;28;24434;-71
2022/11/15 06:11:52;;;;;;;7.57;5.78;;;;;;;5.02;100.00;95376.59;5086441;28;24434;-71
2022/11/15 06:14:19;;;;;;;9.40;4.45;;;;;;;4.97;100.00;95375.97;5081848;28;24445;-71
2022/11/15 06:16:45;;;;;;;5.03;3.30;;;;;;;4.98;100.00;95377.63;5083893;28;24759;-70
2022/11/15 06:19:13;;;;;;;5.75;3.45;;;;;;;5.02;100.00;95379.16;5071749;28;24531;-70
2022/11/15 06:21:39;;;;;;;3.10;2.70;;;;;;;5.01;100.00;95386.94;5082152;28;24984;-70
2022/11/15 06:24:07;;;;;;;7.57;3.00;;;;;;;5.02;100.00;95384.28;5086223;28;24427;-70
2022/11/15 06:26:33;;;;;;;5.18;3.25;;;;;;;4.99;100.00;95384.41;5085070;28;25003;-70
2022/11/15 06:29:00;;;;;;;5.80;3.45;;;;;;;4.97;100.00;95380.25;5077830;28;24959;-71
2022/11/15 06:31:26;;;;;;;4.82;3.10;;;;;;;4.98;100.00;95382.75;5075115;28;24991;-71
2022/11/15 06:33:53;;;;;;;4.43;2.97;;;;;;;5.03;100.00;95385.09;5085479;28;24460;-71
2022/11/15 06:36:21;;;;;;;4.95;3.15;;;;;;;5.10;100.00;95384.75;5086877;28;25010;-71
2022/11/15 06:38:47;;;;;;;4.40;3.20;;;;;;;5.14;100.00;95387.16;5079043;28;24433;-71
2022/11/15 06:41:16;;;;;;;5.68;3.63;;;;;;;5.17;100.00;95397.31;5082543;28;24439;-71
2022/11/15 06:43:43;;;;;;;3.85;3.45;;;;;;;5.22;100.00;95395.34;5083985;28;24542;-70
2022/11/15 06:46:09;;;;;;;3.95;3.28;;;;;;;5.24;100.00;95391.81;5082722;28;25221;-70
2022/11/15 06:48:36;;;;;;;6.30;4.10;;;;;;;5.21;100.00;95394.50;5080472;28;24828;-70
2022/11/15 06:51:05;;;;;;;4.55;3.33;;;;;;;5.25;100.00;95397.75;5084151;28;24430;-71
2022/11/15 06:53:33;;;;;;;6.65;3.60;;;;;;;5.26;100.00;95399.41;5081758;28;24455;-71
2022/11/15 06:56:00;;;;;;;4.30;3.38;;;;;;;5.22;100.00;95396.16;5084936;28;24426;-71
2022/11/15 06:58:27;;;;;;;4.50;3.42;;;;;;;5.33;100.00;95393.91;5086089;28;24487;-71
2022/11/15 07:00:54;;;;;;;5.05;3.30;;;;;;;5.44;100.00;95402.84;5084595;28;25017;-71
2022/11/15 07:03:20;;;;;;;2.85;2.60;;;;;;;5.56;100.00;95404.81;5087923;28;24564;-70
2022/11/15 07:05:53;;;;;;;4.15;2.85;;;;;;;5.62;100.00;95404.50;5081291;28;24441;-70
2022/11/15 07:08:19;;;;;;;6.47;2.88;;;;;;;5.65;100.00;95403.53;5078963;28;24549;-71
2022/11/15 07:10:48;;;;;;;13.18;3.22;;;;;;;5.71;100.00;95411.78;5074611;28;24492;-70
2022/11/15 07:13:14;;;;;;;5.97;2.87;;;;;;;5.58;100.00;95401.25;5087539;28;24454;-71
2022/11/15 07:15:41;;;;;;;3.90;3.10;;;;;;;5.65;100.00;95404.38;5085833;28;25001;-71
2022/11/15 07:18:07;;;;;;;4.93;2.85;;;;;;;5.76;100.00;95411.56;5086063;28;24437;-71
2022/11/15 07:20:34;;;;;;;3.78;2.80;;;;;;;5.85;100.00;95403.38;5075938;28;25008;-71
2022/11/15 07:23:01;;;;;;;4.20;2.70;;;;;;;5.92;100.00;95402.19;5075051;28;25017;-71
2022/11/15 07:25:28;;;;;;;3.13;2.60;;;;;;;6.11;100.00;95403.81;5068013;28;24492;-70
2022/11/15 07:27:56;;;;;;;3.67;2.75;;;;;;;6.32;100.00;95389.88;5075009;28;24434;-71
2022/11/15 07:30:23;;;;;;;3.97;3.05;;;;;;;6.53;100.00;95383.59;5080492;28;24437;-71
2022/11/15 07:32:53;;;;;;;6.00;3.00;;;;;;;6.69;100.00;95393.06;5082007;28;24446;-72
2022/11/15 07:35:20;;;;;;;3.83;2.80;;;;;;;6.55;100.00;95396.38;5071917;28;24972;-71
2022/11/15 07:37:54;;;;;;;5.65;3.45;;;;;;;6.56;100.00;95395.44;5088073;28;24445;-71
2022/11/15 07:40:20;;;;;;;4.78;2.83;;;;;;;6.41;100.00;95396.25;5085589;28;24445;-71
2022/11/15 07:42:53;;;;;;;5.35;3.20;;;;;;;6.41;100.00;95391.94;5080327;28;24430;-71
2022/11/15 07:45:21;;;;;;;5.95;3.55;;;;;;;6.37;100.00;95389.63;5087370;28;24430;-71
2022/11/15 07:47:48;;;;;;;8.23;4.72;;;;;;;6.40;100.00;95392.03;5083297;28;24437;-71
2022/11/15 07:50:15;;;;;;;3.38;2.85;;;;;;;6.54;100.00;95390.41;5080451;28;24448;-71
2022/11/15 07:52:41;;;;;;;4.00;3.20;;;;;;;6.55;100.00;95393.81;5084106;28;24455;-71
2022/11/15 07:55:09;;;;;;;4.63;3.08;;;;;;;6.68;100.00;95389.69;5087341;28;24800;-70
2022/11/15 07:57:35;;;;;;;8.85;3.40;;;;;;;6.90;100.00;95386.78;5083849;28;25435;-71
2022/11/15 08:00:02;;;;;;;3.90;2.90;;;;;;;6.86;100.00;95381.84;5073303;28;25022;-71
2022/11/15 08:02:30;;;;;;;4.35;2.88;;;;;;;6.96;100.00;95395.91;5084329;28;24988;-71
2022/11/15 08:04:57;;;;;;;4.35;2.63;;;;;;;6.97;100.00;95390.69;5080924;28;24438;-72
2022/11/15 08:07:23;;;;;;;7.80;3.42;;;;;;;7.07;100.00;95385.84;5084350;28;24471;-72
2022/11/15 08:09:50;;;;;;;3.88;2.50;;;;;;;7.11;100.00;95386.50;5068510;28;24786;-72
2022/11/15 08:12:16;;;;;;;4.55;2.85;;;;;;;7.22;100.00;95394.47;5084385;28;24495;-76
2022/11/15 08:14:43;;;;;;;4.40;2.90;;;;;;;7.26;100.00;95389.03;5069996;28;24996;-72
2022/11/15 08:17:09;;;;;;;2.90;2.20;;;;;;;7.27;100.00;95383.00;5085099;28;24422;-71
2022/11/15 08:19:37;;;;;;;3.92;2.35;;;;;;;7.36;100.00;95388.56;5077023;28;24797;-71
2022/11/15 08:22:03;;;;;;;3.05;2.30;;;;;;;7.39;100.00;95380.66;5084601;28;24434;-72
2022/11/15 08:24:30;;;;;;;5.65;2.38;;;;;;;7.58;100.00;95377.84;5084094;28;24422;-72
2022/11/15 08:26:56;;;;;;;4.22;2.70;;;;;;;7.63;100.00;95376.66;5092466;28;24437;-71
2022/11/15 08:29:23;;;;;;;3.65;2.20;;;;;;;7.70;100.00;95382.31;5080807;28;24439;-71
2022/11/15 08:31:49;;;;;;;2.80;2.45;;;;;;;7.71;100.00;95382.22;5081346;28;24975;-72
2022/11/15 08:34:16;;;;;;;3.03;2.25;;;;;;;7.75;100.00;95377.72;5084352;28;24462;-72
2022/11/15 08:36:44;;;;;;;4.93;2.50;;;;;;;7.85;100.00;95371.09;5089957;28;24788;-73
2022/11/15 08:39:12;;;;;;;4.87;2.30;;;;;;;7.94;100.00;95369.75;5089125;28;24430;-73
2022/11/15 08:41:38;;;;;;;2.42;2.08;;;;;;;7.98;100.00;95369.47;5083833;28;25036;-73
2022/11/15 08:44:05;;;;;;;5.22;2.00;;;;;;;8.05;100.00;95362.22;5090213;28;24437;-73
2022/11/15 08:46:32;;;;;;;4.70;2.33;;;;;;;8.10;100.00;95357.59;5086171;28;24426;-72
2022/11/15 08:48:58;;;;;;;3.28;1.98;;;;;;;8.19;100.00;95359.66;5089414;28;24426;-71
2022/11/15 08:51:25;;;;;;;4.47;1.97;;;;;;;8.25;100.00;95354.09;5086703;28;20768;-72
2022/11/15 08:53:53;;;;;;;2.63;2.03;;;;;;;8.23;100.00;95358.53;5092360;28;20780;-72
2022/11/15 08:56:19;;;;;;;2.67;2.10;;;;;;;8.30;100.00;95361.56;5082604;28;20803;-71
2022/11/15 08:58:46;;;;;;;3.95;2.40;;;;;;;8.35;100.00;95361.28;5083911;28;24441;-72
2022/11/15 09:01:18;;;;;;;6.70;3.53;;;;;;;8.42;100.00;95370.34;5083717;28;24457;-72
2022/11/15 09:03:45;;;;;;;3.85;2.65;;;;;;;8.47;100.00;95368.31;5091157;28;20690;-71
2022/11/15 09:06:11;;;;;;;3.78;2.90;;;;;;;8.63;100.00;95357.88;5077295;28;24442;-72
2022/11/15 09:08:38;;;;;;;5.00;3.15;;;;;;;8.80;100.00;95355.09;5090399;28;24430;-73
2022/11/15 09:11:06;;;;;;;5.85;3.63;;;;;;;9.07;100.00;95362.03;5086167;28;24430;-71
2022/11/15 09:13:33;;;;;;;5.07;3.38;;;;;;;9.13;100.00;95353.91;5082879;28;24457;-72
2022/11/15 09:16:01;;;;;;;3.55;2.70;;;;;;;9.10;100.00;95352.31;5083511;28;20765;-72
2022/11/15 09:18:28;;;;;;;4.95;3.20;;;;;;;9.05;100.00;95356.09;5067128;28;20815;-72
2022/11/15 09:20:56;;;;;;;7.25;2.97;;;;;;;9.06;100.00;95350.88;5084319;28;20773;-73
2022/11/15 09:23:22;;;;;;;3.05;2.22;;;;;;;9.08;100.00;95350.75;5082482;28;20800;-72
2022/11/15 09:25:49;;;;;;;2.38;2.05;;;;;;;9.17;100.00;95340.69;5085596;28;24516;-72
2022/11/15 09:28:17;;;;;;;2.92;2.00;;;;;;;9.18;100.00;95346.66;5090512;28;20771;-72
2022/11/15 09:30:43;;;;;;;3.50;2.30;;;;;;;9.29;100.00;95335.66;5082958;28;24793;-72
2022/11/15 09:33:11;;;;;;;3.30;2.30;;;;;;;9.28;100.00;95341.75;5087459;28;21302;-72
2022/11/15 09:35:38;;;;;;;6.75;2.58;;;;;;;9.29;100.00;95336.47;5086149;28;20765;-72
2022/11/15 09:38:05;;;;;;;3.65;2.28;;;;;;;9.25;100.00;95339.34;5087229;28;24426;-72
2022/11/15 09:40:33;;;;;;;4.07;2.30;;;;;;;9.28;100.00;95340.00;5087127;28;24438;-72
2022/11/15 09:43:09;;;;;;;2.93;2.10;;;;;;;9.31;100.00;95339.78;5090540;28;24426;-72
2022/11/15 09:45:48;;;;;;;4.90;2.30;;;;;;;9.27;100.00;95338.34;5076355;28;20842;-72
2022/11/15 09:48:36;;;;;;;3.35;2.15;;;;;;;9.30;100.00;95342.47;5080942;28;21335;-72
2022/11/15 09:51:05;;;;;;;4.78;2.30;;;;;;;9.36;100.00;95342.06;5088140;28;20645;-72
2022/11/15 09:53:38;;;;;;;5.30;2.67;;;;;;;9.36;100.00;95345.47;5086366;28;20819;-72
2022/11/15 09:56:14;;;;;;;4.80;2.42;;;;;;;9.48;100.00;95343.84;5076767;28;20714;-72
2022/11/15 09:58:48;;;;;;;4.80;2.70;;;;;;;9.51;100.00;95340.25;5069664;28;20751;-72
2022/11/15 10:01:22;;;;;;;3.80;2.45;;;;;;;9.45;100.00;95334.56;5073104;28;20852;-72
2022/11/15 10:03:49;;;;;;;4.70;2.03;;;;;;;9.50;100.00;95330.84;5084554;28;20715;-72
2022/11/15 10:06:23;;;;;;;2.95;1.95;;;;;;;9.53;100.00;95320.28;5081693;28;24437;-72
2022/11/15 10:08:59;;;;;;;7.50;2.50;;;;;;;9.52;100.00;95322.03;5076905;28;20757;-72
2022/11/15 10:11:28;;;;;;;3.60;2.45;;;;;;;9.59;100.00;95318.13;5079006;28;21229;-72
2022/11/15 10:13:58;;;;;;;4.63;2.20;;;;;;;9.62;100.00;95317.09;5072087;28;24450;-72
2022/11/15 10:16:45;;;;;;;4.38;2.28;;;;;;;9.62;100.00;95315.34;5086427;28;20824;-72
2022/11/15 10:19:22;;;;;;;3.47;2.30;;;;;;;9.65;100.00;95315.16;5073378;28;21196;-72
2022/11/15 10:22:00;;;;;;;2.60;2.20;;;;;;;9.94;100.00;95313.19;5070830;28;24438;-72
2022/11/15 10:24:34;;;;;;;3.70;2.10;;;;;;;9.94;100.00;95309.78;5071106;28;20763;-72
2022/11/15 10:27:01;;;;;;;5.00;2.20;;;;;;;10.03;100.00;95311.75;5073083;28;24449;-72
2022/11/15 10:29:28;;;;;;;3.57;2.30;;;;;;;10.03;100.00;95303.97;5073207;28;24457;-72
2022/11/15 10:31:55;;;;;;;6.32;2.83;;;;;;;9.99;100.00;95299.13;5071807;28;24965;-72
2022/11/15 10:34:24;;;;;;;7.70;2.65;;;;;;;9.93;100.00;95298.59;5073830;28;24457;-72
2022/11/15 10:36:56;;;;;;;4.47;2.55;;;;;;;9.87;100.00;95291.25;5077045;28;20768;-72
2022/11/15 10:39:22;;;;;;;3.85;2.80;;;;;;;9.88;100.00;95282.56;5084681;28;24436;-72
2022/11/15 10:41:50;;;;;;;3.65;2.40;;;;;;;9.87;100.00;95287.84;5077709;28;24434;-72
2022/11/15 10:44:23;;;;;;;2.72;2.10;;;;;;;9.90;100.00;95279.88;5082974;28;24957;-72
2022/11/15 10:47:07;;;;;;;3.92;2.25;;;;;;;9.87;100.00;95285.28;5075951;28;20770;-72
2022/11/15 10:49:35;;;;;;;4.13;2.28;;;;;;;9.90;100.00;95280.72;5070781;28;21215;-73
2022/11/15 10:52:05;;;;;;;2.92;2.33;;;;;;;9.88;100.00;95277.38;5072133;28;20814;-73
2022/11/15 10:54:38;;;;;;;2.65;2.15;;;;;;;9.90;100.00;95274.69;5079742;28;20790;-73
2022/11/15 10:57:08;;;;;;;4.55;2.10;;;;;;;9.85;100.00;95275.00;5072093;28;21123;-72
2022/11/15 10:59:37;;;;;;;6.13;2.00;;;;;;;9.86;100.00;95268.94;5071377;28;24438;-72
2022/11/15 11:02:29;;;;;;;2.58;2.20;;;;;;;9.93;100.00;95271.91;5072333;28;21111;-72
2022/11/15 11:04:55;;;;;;;2.90;1.87;;;;;;;9.97;100.00;95275.09;5072564;28;24488;-72
2022/11/15 11:07:24;;;;;;;3.72;2.03;;;;;;;9.99;100.00;95261.13;5073179;28;24430;-72
2022/11/15 11:09:59;;;;;;;3.58;2.15;;;;;;;10.05;100.00;95255.56;5071724;28;20796;-72
2022/11/15 11:12:29;;;;;;;3.10;2.28;;;;;;;10.11;100.00;95252.53;5073401;28;21133;-72
2022/11/15 11:14:56;;;;;;;4.43;2.45;;;;;;;10.18;100.00;95250.34;5066100;28;21426;-72
2022/11/15 11:17:35;;;;;;;4.22;2.15;;;;;;;10.26;100.00;95242.91;5070874;28;24434;-73
2022/11/15 11:20:09;;;;;;;3.63;1.90;;;;;;;10.27;100.00;95235.97;5065536;28;24446;-73
2022/11/15 11:22:43;;;;;;;3.38;2.10;;;;;;;10.31;100.00;95230.47;5071190;28;24431;-71
2022/11/15 11:25:23;;;;;;;3.88;2.05;;;;;;;10.32;100.00;95226.13;5073215;28;20715;-72
2022/11/15 11:28:03;;;;;;;5.00;2.30;;;;;;;10.35;100.00;95223.34;5070175;28;20797;-72
2022/11/15 11:30:42;;;;;;;6.10;2.60;;;;;;;10.34;100.00;95221.66;5075504;28;20851;-72
2022/11/15 11:33:18;;;;;;;3.08;1.80;;;;;;;10.33;100.00;95217.41;5086113;28;21313;-72
2022/11/15 11:35:59;;;;;;;5.35;2.08;;;;;;;10.43;100.00;95222.78;5085690;28;24504;-72
2022/11/15 11:38:40;;;;;;;2.97;1.85;;;;;;;10.50;100.00;95219.66;5088018;28;24869;-72
2022/11/15 11:41:28;;;;;;;2.60;1.90;;;;;;;10.48;100.00;95212.91;5076917;28;24446;-72
2022/11/15 11:44:07;;;;;;;3.35;2.13;;;;;;;10.48;100.00;95205.97;5069266;28;20795;-71
2022/11/15 11:46:48;;;;;;;3.58;1.95;;;;;;;10.56;100.00;95206.25;5066749;28;24458;-72
2022/11/15 11:49:24;;;;;;;3.53;1.90;;;;;;;10.58;100.00;95195.81;5067148;28;24434;-72